sensor_id;sensor_type;location;lat;lon;timestamp;temperature;humidity
23405;DHT22;11875;49.356;2.718;2023-04-25T00:02:05;10.30;99.90
23405;DHT22;11875;49.356;2.718;2023-04-25T00:04:32;10.60;99.90
23405;DHT22;11875;49.356;2.718;2023-04-25T00:06:59;10.20;99.90
23405;DHT22;11875;49.356;2.718;2023-04-25T00:09:27;10.20;99.90
23405;DHT22;11875;49.356;2.718;2023-04-25T00:11:53;10.20;99.90
23405;DHT22;11875;49.356;2.718;2023-04-25T00:14:18;10.20;99.90
23405;DHT22;11875;49.356;2.718;2023-04-25T00:16:44;10.20;99.90
23405;DHT22;11875;49.356;2.718;2023-04-25T00:19:10;10.20;99.90
23405;DHT22;11875;49.356;2.718;2023-04-25T00:21:35;10.10;99.90
23405;DHT22;11875;49.356;2.718;2023-04-25T00:24:03;10.20;99.90
23405;DHT22;11875;49.356;2.718;2023-04-25T00:26:28;10.30;99.90
23405;DHT22;11875;49.356;2.718;2023-04-25T00:28:54;10.20;99.90
23405;DHT22;11875;49.356;2.718;2023-04-25T00:31:19;10.20;99.90
23405;DHT22;11875;49.356;2.718;2023-04-25T00:33:45;10.20;99.90
23405;DHT22;11875;49.356;2.718;2023-04-25T00:36:11;10.20;99.90
23405;DHT22;11875;49.356;2.718;2023-04-25T00:38:36;10.20;99.90
23405;DHT22;11875;49.356;2.718;2023-04-25T00:41:05;10.30;99.90
23405;DHT22;11875;49.356;2.718;2023-04-25T00:43:32;10.30;99.90
23405;DHT22;11875;49.356;2.718;2023-04-25T00:46:00;10.20;99.90
23405;DHT22;11875;49.356;2.718;2023-04-25T00:48:26;10.30;99.90
23405;DHT22;11875;49.356;2.718;2023-04-25T00:50:54;10.30;99.90
23405;DHT22;11875;49.356;2.718;2023-04-25T00:53:21;10.20;99.90
23405;DHT22;11875;49.356;2.718;2023-04-25T00:55:47;10.20;99.90
23405;DHT22;11875;49.356;2.718;2023-04-25T00:58:13;10.30;99.90
23405;DHT22;11875;49.356;2.718;2023-04-25T01:00:40;10.40;99.90
23405;DHT22;11875;49.356;2.718;2023-04-25T01:03:06;10.40;99.90
23405;DHT22;11875;49.356;2.718;2023-04-25T01:05:32;10.40;99.90
23405;DHT22;11875;49.356;2.718;2023-04-25T01:07:58;10.30;99.90
23405;DHT22;11875;49.356;2.718;2023-04-25T01:10:24;10.30;99.90
23405;DHT22;11875;49.356;2.718;2023-04-25T01:12:49;10.30;99.90
23405;DHT22;11875;49.356;2.718;2023-04-25T01:15:15;10.30;99.90
23405;DHT22;11875;49.356;2.718;2023-04-25T01:17:41;10.20;99.90
23405;DHT22;11875;49.356;2.718;2023-04-25T01:20:08;10.20;99.90
23405;DHT22;11875;49.356;2.718;2023-04-25T01:22:35;10.30;99.90
23405;DHT22;11875;49.356;2.718;2023-04-25T01:25:00;10.20;99.90
23405;DHT22;11875;49.356;2.718;2023-04-25T01:27:27;10.30;99.90
23405;DHT22;11875;49.356;2.718;2023-04-25T01:29:54;10.30;99.90
23405;DHT22;11875;49.356;2.718;2023-04-25T01:32:22;10.30;99.90
23405;DHT22;11875;49.356;2.718;2023-04-25T01:34:48;10.20;99.90
23405;DHT22;11875;49.356;2.718;2023-04-25T01:37:13;10.10;99.90
23405;DHT22;11875;49.356;2.718;2023-04-25T01:39:39;10.10;99.90
23405;DHT22;11875;49.356;2.718;2023-04-25T01:42:05;10.10;99.90
23405;DHT22;11875;49.356;2.718;2023-04-25T01:44:30;10.10;99.90
23405;DHT22;11875;49.356;2.718;2023-04-25T01:46:56;10.10;99.90
23405;DHT22;11875;49.356;2.718;2023-04-25T01:49:21;10.10;99.90
23405;DHT22;11875;49.356;2.718;2023-04-25T01:51:47;10.10;99.90
23405;DHT22;11875;49.356;2.718;2023-04-25T01:54:13;10.50;99.90
23405;DHT22;11875;49.356;2.718;2023-04-25T01:56:39;10.30;99.90
23405;DHT22;11875;49.356;2.718;2023-04-25T01:59:05;10.50;99.90
23405;DHT22;11875;49.356;2.718;2023-04-25T02:01:32;10.50;99.90
23405;DHT22;11875;49.356;2.718;2023-04-25T02:03:57;10.40;99.90
23405;DHT22;11875;49.356;2.718;2023-04-25T02:06:23;10.30;99.90
23405;DHT22;11875;49.356;2.718;2023-04-25T02:08:48;10.30;99.90
23405;DHT22;11875;49.356;2.718;2023-04-25T02:11:14;10.30;99.90
23405;DHT22;11875;49.356;2.718;2023-04-25T02:13:40;10.30;99.90
23405;DHT22;11875;49.356;2.718;2023-04-25T02:16:05;10.40;99.90
23405;DHT22;11875;49.356;2.718;2023-04-25T02:18:31;10.30;99.90
23405;DHT22;11875;49.356;2.718;2023-04-25T02:20:59;10.30;99.90
23405;DHT22;11875;49.356;2.718;2023-04-25T02:23:25;10.30;99.90
23405;DHT22;11875;49.356;2.718;2023-04-25T02:25:51;10.30;99.90
23405;DHT22;11875;49.356;2.718;2023-04-25T02:28:17;10.20;99.90
23405;DHT22;11875;49.356;2.718;2023-04-25T02:30:42;10.20;99.90
23405;DHT22;11875;49.356;2.718;2023-04-25T02:33:08;10.20;99.90
23405;DHT22;11875;49.356;2.718;2023-04-25T02:35:34;10.20;99.90
23405;DHT22;11875;49.356;2.718;2023-04-25T02:37:59;10.20;99.90
23405;DHT22;11875;49.356;2.718;2023-04-25T02:40:25;10.20;99.90
23405;DHT22;11875;49.356;2.718;2023-04-25T02:42:50;10.10;99.90
23405;DHT22;11875;49.356;2.718;2023-04-25T02:45:16;10.20;99.90
23405;DHT22;11875;49.356;2.718;2023-04-25T02:47:42;10.20;99.90
23405;DHT22;11875;49.356;2.718;2023-04-25T02:50:08;11.20;99.90
23405;DHT22;11875;49.356;2.718;2023-04-25T02:52:34;10.10;99.90
23405;DHT22;11875;49.356;2.718;2023-04-25T02:54:59;10.10;99.90
23405;DHT22;11875;49.356;2.718;2023-04-25T02:57:25;10.00;99.90
23405;DHT22;11875;49.356;2.718;2023-04-25T02:59:50;10.00;99.90
23405;DHT22;11875;49.356;2.718;2023-04-25T03:02:16;10.00;99.90
23405;DHT22;11875;49.356;2.718;2023-04-25T03:04:41;10.00;99.90
23405;DHT22;11875;49.356;2.718;2023-04-25T03:07:07;10.00;99.90
23405;DHT22;11875;49.356;2.718;2023-04-25T03:09:33;10.00;99.90
23405;DHT22;11875;49.356;2.718;2023-04-25T03:11:58;10.00;99.90
23405;DHT22;11875;49.356;2.718;2023-04-25T03:14:24;10.00;99.90
23405;DHT22;11875;49.356;2.718;2023-04-25T03:16:50;10.00;99.90
23405;DHT22;11875;49.356;2.718;2023-04-25T03:19:15;10.00;99.90
23405;DHT22;11875;49.356;2.718;2023-04-25T03:21:42;10.00;99.90
23405;DHT22;11875;49.356;2.718;2023-04-25T03:24:09;10.10;99.90
23405;DHT22;11875;49.356;2.718;2023-04-25T03:26:36;10.20;99.90
23405;DHT22;11875;49.356;2.718;2023-04-25T03:29:02;10.10;99.90
23405;DHT22;11875;49.356;2.718;2023-04-25T03:31:27;10.20;99.90
23405;DHT22;11875;49.356;2.718;2023-04-25T03:33:53;10.00;99.90
23405;DHT22;11875;49.356;2.718;2023-04-25T03:36:18;10.00;99.90
23405;DHT22;11875;49.356;2.718;2023-04-25T03:38:44;10.00;99.90
23405;DHT22;11875;49.356;2.718;2023-04-25T03:41:10;10.00;99.90
23405;DHT22;11875;49.356;2.718;2023-04-25T03:43:35;10.00;99.90
23405;DHT22;11875;49.356;2.718;2023-04-25T03:46:01;10.10;99.90
23405;DHT22;11875;49.356;2.718;2023-04-25T03:48:27;10.10;99.90
23405;DHT22;11875;49.356;2.718;2023-04-25T03:50:53;10.00;99.90
23405;DHT22;11875;49.356;2.718;2023-04-25T03:53:19;10.00;99.90
23405;DHT22;11875;49.356;2.718;2023-04-25T03:55:44;10.00;99.90
23405;DHT22;11875;49.356;2.718;2023-04-25T03:58:10;10.00;99.90
23405;DHT22;11875;49.356;2.718;2023-04-25T04:00:36;10.10;99.90
23405;DHT22;11875;49.356;2.718;2023-04-25T04:03:01;10.10;99.90
23405;DHT22;11875;49.356;2.718;2023-04-25T04:05:27;10.10;99.90
23405;DHT22;11875;49.356;2.718;2023-04-25T04:07:54;10.20;99.90
23405;DHT22;11875;49.356;2.718;2023-04-25T04:10:19;10.20;99.90
23405;DHT22;11875;49.356;2.718;2023-04-25T04:12:45;10.20;99.90
23405;DHT22;11875;49.356;2.718;2023-04-25T04:15:11;10.10;99.90
23405;DHT22;11875;49.356;2.718;2023-04-25T04:17:37;10.00;99.90
23405;DHT22;11875;49.356;2.718;2023-04-25T04:20:03;10.00;99.90
23405;DHT22;11875;49.356;2.718;2023-04-25T04:22:29;9.90;99.90
23405;DHT22;11875;49.356;2.718;2023-04-25T04:24:55;9.90;99.90
23405;DHT22;11875;49.356;2.718;2023-04-25T04:27:22;10.00;99.90
23405;DHT22;11875;49.356;2.718;2023-04-25T04:29:49;10.00;99.90
23405;DHT22;11875;49.356;2.718;2023-04-25T04:32:15;10.00;99.90
23405;DHT22;11875;49.356;2.718;2023-04-25T04:34:41;10.00;99.90
23405;DHT22;11875;49.356;2.718;2023-04-25T04:37:07;9.90;99.90
23405;DHT22;11875;49.356;2.718;2023-04-25T04:39:33;9.90;99.90
23405;DHT22;11875;49.356;2.718;2023-04-25T04:41:59;9.90;99.90
23405;DHT22;11875;49.356;2.718;2023-04-25T04:44:27;9.90;99.90
23405;DHT22;11875;49.356;2.718;2023-04-25T04:46:53;9.90;99.90
23405;DHT22;11875;49.356;2.718;2023-04-25T04:49:19;9.70;99.90
23405;DHT22;11875;49.356;2.718;2023-04-25T04:51:45;10.90;99.90
23405;DHT22;11875;49.356;2.718;2023-04-25T04:54:11;9.90;99.90
23405;DHT22;11875;49.356;2.718;2023-04-25T04:56:36;10.00;99.90
23405;DHT22;11875;49.356;2.718;2023-04-25T04:59:02;10.00;99.90
23405;DHT22;11875;49.356;2.718;2023-04-25T05:01:28;9.90;99.90
23405;DHT22;11875;49.356;2.718;2023-04-25T05:03:55;10.00;99.90
23405;DHT22;11875;49.356;2.718;2023-04-25T05:06:26;10.00;99.90
23405;DHT22;11875;49.356;2.718;2023-04-25T05:08:52;10.10;99.90
23405;DHT22;11875;49.356;2.718;2023-04-25T05:11:18;10.20;99.90
23405;DHT22;11875;49.356;2.718;2023-04-25T05:13:44;10.10;99.90
23405;DHT22;11875;49.356;2.718;2023-04-25T05:16:11;10.20;99.90
23405;DHT22;11875;49.356;2.718;2023-04-25T05:18:36;10.20;99.90
23405;DHT22;11875;49.356;2.718;2023-04-25T05:21:02;10.00;99.90
23405;DHT22;11875;49.356;2.718;2023-04-25T05:23:28;10.10;99.90
23405;DHT22;11875;49.356;2.718;2023-04-25T05:25:55;10.00;99.90
23405;DHT22;11875;49.356;2.718;2023-04-25T05:28:21;10.10;99.90
23405;DHT22;11875;49.356;2.718;2023-04-25T05:30:46;10.10;99.90
23405;DHT22;11875;49.356;2.718;2023-04-25T05:33:12;10.00;99.90
23405;DHT22;11875;49.356;2.718;2023-04-25T05:35:38;10.00;99.90
23405;DHT22;11875;49.356;2.718;2023-04-25T05:38:03;9.70;99.90
23405;DHT22;11875;49.356;2.718;2023-04-25T05:40:29;9.90;99.90
23405;DHT22;11875;49.356;2.718;2023-04-25T05:42:55;9.80;99.90
23405;DHT22;11875;49.356;2.718;2023-04-25T05:45:20;9.60;99.90
23405;DHT22;11875;49.356;2.718;2023-04-25T05:47:46;9.60;99.90
23405;DHT22;11875;49.356;2.718;2023-04-25T05:50:11;9.50;99.90
23405;DHT22;11875;49.356;2.718;2023-04-25T05:52:37;9.50;99.90
23405;DHT22;11875;49.356;2.718;2023-04-25T05:55:03;9.40;99.90
23405;DHT22;11875;49.356;2.718;2023-04-25T05:57:28;9.40;99.90
23405;DHT22;11875;49.356;2.718;2023-04-25T05:59:54;9.40;99.90
23405;DHT22;11875;49.356;2.718;2023-04-25T06:02:20;9.30;99.90
23405;DHT22;11875;49.356;2.718;2023-04-25T06:04:51;9.30;99.90
23405;DHT22;11875;49.356;2.718;2023-04-25T06:07:18;9.40;99.90
23405;DHT22;11875;49.356;2.718;2023-04-25T06:09:44;9.40;99.90
23405;DHT22;11875;49.356;2.718;2023-04-25T06:12:10;9.30;99.90
23405;DHT22;11875;49.356;2.718;2023-04-25T06:14:35;9.30;99.90
23405;DHT22;11875;49.356;2.718;2023-04-25T06:17:01;9.40;99.90
23405;DHT22;11875;49.356;2.718;2023-04-25T06:19:32;9.40;99.90
23405;DHT22;11875;49.356;2.718;2023-04-25T06:21:58;9.30;99.90
23405;DHT22;11875;49.356;2.718;2023-04-25T06:24:24;9.30;99.90
23405;DHT22;11875;49.356;2.718;2023-04-25T06:26:49;9.40;99.90
23405;DHT22;11875;49.356;2.718;2023-04-25T06:29:15;9.30;99.90
23405;DHT22;11875;49.356;2.718;2023-04-25T06:31:40;9.40;99.90
23405;DHT22;11875;49.356;2.718;2023-04-25T06:34:06;9.40;99.90
23405;DHT22;11875;49.356;2.718;2023-04-25T06:36:32;9.50;99.90
23405;DHT22;11875;49.356;2.718;2023-04-25T06:38:57;9.50;99.90
23405;DHT22;11875;49.356;2.718;2023-04-25T06:41:23;9.60;99.90
23405;DHT22;11875;49.356;2.718;2023-04-25T06:43:48;9.70;99.90
23405;DHT22;11875;49.356;2.718;2023-04-25T06:46:14;9.70;99.90
23405;DHT22;11875;49.356;2.718;2023-04-25T06:48:40;9.60;99.90
23405;DHT22;11875;49.356;2.718;2023-04-25T06:51:05;9.70;99.90
23405;DHT22;11875;49.356;2.718;2023-04-25T06:53:31;9.70;99.90
23405;DHT22;11875;49.356;2.718;2023-04-25T06:55:56;9.70;99.90
23405;DHT22;11875;49.356;2.718;2023-04-25T06:58:22;9.70;99.90
23405;DHT22;11875;49.356;2.718;2023-04-25T07:00:48;9.80;99.90
23405;DHT22;11875;49.356;2.718;2023-04-25T07:03:13;9.80;99.90
23405;DHT22;11875;49.356;2.718;2023-04-25T07:05:39;9.90;99.90
23405;DHT22;11875;49.356;2.718;2023-04-25T07:08:04;9.80;99.90
23405;DHT22;11875;49.356;2.718;2023-04-25T07:10:30;9.70;99.90
23405;DHT22;11875;49.356;2.718;2023-04-25T07:12:56;10.00;99.90
23405;DHT22;11875;49.356;2.718;2023-04-25T07:15:21;9.70;99.90
23405;DHT22;11875;49.356;2.718;2023-04-25T07:17:47;9.80;99.90
23405;DHT22;11875;49.356;2.718;2023-04-25T07:20:12;9.70;99.90
23405;DHT22;11875;49.356;2.718;2023-04-25T07:22:38;9.80;99.90
23405;DHT22;11875;49.356;2.718;2023-04-25T07:25:04;9.70;99.90
23405;DHT22;11875;49.356;2.718;2023-04-25T07:27:31;9.80;99.90
23405;DHT22;11875;49.356;2.718;2023-04-25T07:29:56;9.80;99.90
23405;DHT22;11875;49.356;2.718;2023-04-25T07:32:22;9.70;99.90
23405;DHT22;11875;49.356;2.718;2023-04-25T07:34:48;9.70;99.90
23405;DHT22;11875;49.356;2.718;2023-04-25T07:37:14;9.70;99.90
23405;DHT22;11875;49.356;2.718;2023-04-25T07:39:40;9.70;99.90
23405;DHT22;11875;49.356;2.718;2023-04-25T07:42:06;9.90;99.90
23405;DHT22;11875;49.356;2.718;2023-04-25T07:44:34;9.90;99.90
23405;DHT22;11875;49.356;2.718;2023-04-25T07:47:07;9.90;99.90
23405;DHT22;11875;49.356;2.718;2023-04-25T07:49:34;10.00;99.90
23405;DHT22;11875;49.356;2.718;2023-04-25T07:52:00;10.10;99.90
23405;DHT22;11875;49.356;2.718;2023-04-25T07:54:26;10.00;99.90
23405;DHT22;11875;49.356;2.718;2023-04-25T07:56:51;10.10;99.90
23405;DHT22;11875;49.356;2.718;2023-04-25T07:59:17;10.20;99.90
23405;DHT22;11875;49.356;2.718;2023-04-25T08:01:42;10.10;99.90
23405;DHT22;11875;49.356;2.718;2023-04-25T08:04:08;10.10;99.90
23405;DHT22;11875;49.356;2.718;2023-04-25T08:06:33;10.20;99.90
23405;DHT22;11875;49.356;2.718;2023-04-25T08:09:00;10.20;99.90
23405;DHT22;11875;49.356;2.718;2023-04-25T08:11:25;10.10;99.90
23405;DHT22;11875;49.356;2.718;2023-04-25T08:13:51;10.00;99.90
23405;DHT22;11875;49.356;2.718;2023-04-25T08:16:17;9.90;99.90
23405;DHT22;11875;49.356;2.718;2023-04-25T08:18:42;9.90;99.90
23405;DHT22;11875;49.356;2.718;2023-04-25T08:21:08;10.00;99.90
23405;DHT22;11875;49.356;2.718;2023-04-25T08:23:36;10.10;99.90
23405;DHT22;11875;49.356;2.718;2023-04-25T08:26:02;10.30;99.90
23405;DHT22;11875;49.356;2.718;2023-04-25T08:28:28;10.30;99.90
23405;DHT22;11875;49.356;2.718;2023-04-25T08:30:54;10.20;99.90
23405;DHT22;11875;49.356;2.718;2023-04-25T08:33:20;10.30;99.90
23405;DHT22;11875;49.356;2.718;2023-04-25T08:35:45;10.30;99.90
23405;DHT22;11875;49.356;2.718;2023-04-25T08:38:11;10.40;99.90
23405;DHT22;11875;49.356;2.718;2023-04-25T08:40:38;10.40;99.90
23405;DHT22;11875;49.356;2.718;2023-04-25T08:43:05;10.40;99.90
23405;DHT22;11875;49.356;2.718;2023-04-25T08:45:39;10.60;99.90
23405;DHT22;11875;49.356;2.718;2023-04-25T08:48:10;10.80;99.90
23405;DHT22;11875;49.356;2.718;2023-04-25T08:50:40;10.90;99.90
23405;DHT22;11875;49.356;2.718;2023-04-25T08:53:09;11.00;99.90
23405;DHT22;11875;49.356;2.718;2023-04-25T08:55:41;11.10;99.90
23405;DHT22;11875;49.356;2.718;2023-04-25T08:58:07;11.30;99.90
23405;DHT22;11875;49.356;2.718;2023-04-25T09:00:35;11.20;99.90
23405;DHT22;11875;49.356;2.718;2023-04-25T09:03:01;11.20;99.90
23405;DHT22;11875;49.356;2.718;2023-04-25T09:05:28;11.00;99.90
23405;DHT22;11875;49.356;2.718;2023-04-25T09:07:54;11.10;99.90
23405;DHT22;11875;49.356;2.718;2023-04-25T09:10:19;11.20;99.90
23405;DHT22;11875;49.356;2.718;2023-04-25T09:13:05;11.30;99.90
23405;DHT22;11875;49.356;2.718;2023-04-25T09:15:31;11.30;99.90
23405;DHT22;11875;49.356;2.718;2023-04-25T09:17:58;11.30;99.90
23405;DHT22;11875;49.356;2.718;2023-04-25T09:20:24;11.60;99.90
23405;DHT22;11875;49.356;2.718;2023-04-25T09:23:01;11.70;99.90
23405;DHT22;11875;49.356;2.718;2023-04-25T09:25:36;12.80;99.90
23405;DHT22;11875;49.356;2.718;2023-04-25T09:28:05;12.20;99.90
23405;DHT22;11875;49.356;2.718;2023-04-25T09:30:33;12.30;99.90
23405;DHT22;11875;49.356;2.718;2023-04-25T09:33:10;12.40;99.90
23405;DHT22;11875;49.356;2.718;2023-04-25T09:35:41;12.40;99.90
23405;DHT22;11875;49.356;2.718;2023-04-25T09:38:09;12.30;99.90
23405;DHT22;11875;49.356;2.718;2023-04-25T09:40:39;12.10;99.90
23405;DHT22;11875;49.356;2.718;2023-04-25T09:43:18;12.20;99.90
23405;DHT22;11875;49.356;2.718;2023-04-25T09:45:44;12.30;99.90
23405;DHT22;11875;49.356;2.718;2023-04-25T09:48:12;12.40;99.90
23405;DHT22;11875;49.356;2.718;2023-04-25T09:50:38;12.20;99.90
23405;DHT22;11875;49.356;2.718;2023-04-25T09:53:05;12.30;99.90
23405;DHT22;11875;49.356;2.718;2023-04-25T09:55:32;12.30;99.90
23405;DHT22;11875;49.356;2.718;2023-04-25T09:58:04;12.40;99.90
23405;DHT22;11875;49.356;2.718;2023-04-25T10:00:32;12.50;99.90
23405;DHT22;11875;49.356;2.718;2023-04-25T10:03:01;12.60;99.90
23405;DHT22;11875;49.356;2.718;2023-04-25T10:05:30;12.60;99.90
23405;DHT22;11875;49.356;2.718;2023-04-25T10:07:59;12.60;99.90
23405;DHT22;11875;49.356;2.718;2023-04-25T10:10:28;12.50;99.90
23405;DHT22;11875;49.356;2.718;2023-04-25T10:12:55;12.50;99.90
23405;DHT22;11875;49.356;2.718;2023-04-25T10:15:22;12.40;99.90
23405;DHT22;11875;49.356;2.718;2023-04-25T10:17:49;12.40;99.90
23405;DHT22;11875;49.356;2.718;2023-04-25T10:20:15;12.30;99.90
23405;DHT22;11875;49.356;2.718;2023-04-25T10:22:42;12.30;99.90
23405;DHT22;11875;49.356;2.718;2023-04-25T10:25:09;12.40;99.90
23405;DHT22;11875;49.356;2.718;2023-04-25T10:27:36;12.10;99.90
23405;DHT22;11875;49.356;2.718;2023-04-25T10:30:11;12.00;99.90
23405;DHT22;11875;49.356;2.718;2023-04-25T10:32:41;12.00;99.90
23405;DHT22;11875;49.356;2.718;2023-04-25T10:35:12;11.90;99.90
23405;DHT22;11875;49.356;2.718;2023-04-25T10:37:38;11.90;99.90
23405;DHT22;11875;49.356;2.718;2023-04-25T10:40:10;12.00;99.90
23405;DHT22;11875;49.356;2.718;2023-04-25T10:42:36;12.10;99.90
23405;DHT22;11875;49.356;2.718;2023-04-25T10:45:04;12.00;99.90
23405;DHT22;11875;49.356;2.718;2023-04-25T10:47:38;12.00;99.90
23405;DHT22;11875;49.356;2.718;2023-04-25T10:50:08;12.00;99.90
23405;DHT22;11875;49.356;2.718;2023-04-25T10:52:34;12.00;99.90
23405;DHT22;11875;49.356;2.718;2023-04-25T10:55:03;12.00;99.90
23405;DHT22;11875;49.356;2.718;2023-04-25T10:57:42;12.00;99.90
23405;DHT22;11875;49.356;2.718;2023-04-25T11:02:43;11.90;99.90
23405;DHT22;11875;49.356;2.718;2023-04-25T11:05:10;12.10;99.90
23405;DHT22;11875;49.356;2.718;2023-04-25T11:07:54;12.20;99.90
23405;DHT22;11875;49.356;2.718;2023-04-25T11:10:26;12.40;99.90
23405;DHT22;11875;49.356;2.718;2023-04-25T11:12:52;12.30;99.90
23405;DHT22;11875;49.356;2.718;2023-04-25T11:15:18;12.40;99.90
23405;DHT22;11875;49.356;2.718;2023-04-25T11:17:43;12.30;99.90
23405;DHT22;11875;49.356;2.718;2023-04-25T11:20:12;12.30;99.90
23405;DHT22;11875;49.356;2.718;2023-04-25T11:22:40;12.40;99.90
23405;DHT22;11875;49.356;2.718;2023-04-25T11:25:07;12.50;99.90
23405;DHT22;11875;49.356;2.718;2023-04-25T11:27:33;12.60;99.90
23405;DHT22;11875;49.356;2.718;2023-04-25T11:30:13;12.50;99.90
23405;DHT22;11875;49.356;2.718;2023-04-25T11:32:40;12.50;99.90
23405;DHT22;11875;49.356;2.718;2023-04-25T11:35:07;12.50;99.90
23405;DHT22;11875;49.356;2.718;2023-04-25T11:37:33;12.30;99.90
23405;DHT22;11875;49.356;2.718;2023-04-25T11:40:00;12.40;99.90
23405;DHT22;11875;49.356;2.718;2023-04-25T11:42:25;12.40;99.90
23405;DHT22;11875;49.356;2.718;2023-04-25T11:44:51;12.40;99.90
23405;DHT22;11875;49.356;2.718;2023-04-25T11:47:17;12.80;99.90
23405;DHT22;11875;49.356;2.718;2023-04-25T11:49:42;12.40;99.90
23405;DHT22;11875;49.356;2.718;2023-04-25T11:52:08;12.40;99.90
23405;DHT22;11875;49.356;2.718;2023-04-25T11:54:37;12.40;99.90
23405;DHT22;11875;49.356;2.718;2023-04-25T11:57:04;12.50;99.90
23405;DHT22;11875;49.356;2.718;2023-04-25T11:59:29;12.70;99.90
23405;DHT22;11875;49.356;2.718;2023-04-25T12:01:55;13.50;99.90
23405;DHT22;11875;49.356;2.718;2023-04-25T12:04:24;12.70;99.90
23405;DHT22;11875;49.356;2.718;2023-04-25T12:06:55;12.90;99.90
23405;DHT22;11875;49.356;2.718;2023-04-25T12:09:28;13.00;99.90
23405;DHT22;11875;49.356;2.718;2023-04-25T12:11:55;13.20;99.90
23405;DHT22;11875;49.356;2.718;2023-04-25T12:14:30;13.20;99.90
23405;DHT22;11875;49.356;2.718;2023-04-25T12:16:57;13.20;99.90
23405;DHT22;11875;49.356;2.718;2023-04-25T12:19:24;13.30;99.90
23405;DHT22;11875;49.356;2.718;2023-04-25T12:21:50;13.30;99.90
23405;DHT22;11875;49.356;2.718;2023-04-25T12:24:26;13.30;99.90
23405;DHT22;11875;49.356;2.718;2023-04-25T12:27:06;13.00;99.90
23405;DHT22;11875;49.356;2.718;2023-04-25T12:29:34;13.50;99.90
23405;DHT22;11875;49.356;2.718;2023-04-25T12:31:59;13.40;99.90
23405;DHT22;11875;49.356;2.718;2023-04-25T12:34:27;13.40;99.90
23405;DHT22;11875;49.356;2.718;2023-04-25T12:36:54;13.50;99.90
23405;DHT22;11875;49.356;2.718;2023-04-25T12:39:24;13.60;99.90
23405;DHT22;11875;49.356;2.718;2023-04-25T12:41:51;13.70;99.90
23405;DHT22;11875;49.356;2.718;2023-04-25T12:44:19;13.70;99.90
23405;DHT22;11875;49.356;2.718;2023-04-25T12:46:45;13.60;99.90
23405;DHT22;11875;49.356;2.718;2023-04-25T12:49:10;13.60;99.90
23405;DHT22;11875;49.356;2.718;2023-04-25T12:51:37;13.60;99.90
23405;DHT22;11875;49.356;2.718;2023-04-25T12:54:04;13.80;99.90
23405;DHT22;11875;49.356;2.718;2023-04-25T12:56:31;13.90;99.90
23405;DHT22;11875;49.356;2.718;2023-04-25T12:58:57;14.00;99.90
23405;DHT22;11875;49.356;2.718;2023-04-25T13:01:24;14.10;99.90
23405;DHT22;11875;49.356;2.718;2023-04-25T13:03:50;14.10;99.90
23405;DHT22;11875;49.356;2.718;2023-04-25T13:06:17;14.00;99.90
23405;DHT22;11875;49.356;2.718;2023-04-25T13:08:43;13.90;99.90
23405;DHT22;11875;49.356;2.718;2023-04-25T13:11:08;13.90;99.90
23405;DHT22;11875;49.356;2.718;2023-04-25T13:13:35;14.00;99.90
23405;DHT22;11875;49.356;2.718;2023-04-25T13:16:01;14.00;99.90
23405;DHT22;11875;49.356;2.718;2023-04-25T13:18:30;14.00;99.90
23405;DHT22;11875;49.356;2.718;2023-04-25T13:20:57;14.00;99.90
23405;DHT22;11875;49.356;2.718;2023-04-25T13:23:26;14.00;99.90
23405;DHT22;11875;49.356;2.718;2023-04-25T13:25:52;14.00;99.90
23405;DHT22;11875;49.356;2.718;2023-04-25T13:28:18;14.00;99.90
23405;DHT22;11875;49.356;2.718;2023-04-25T13:30:44;14.10;99.90
23405;DHT22;11875;49.356;2.718;2023-04-25T13:33:10;14.10;99.90
23405;DHT22;11875;49.356;2.718;2023-04-25T13:35:36;14.20;99.90
23405;DHT22;11875;49.356;2.718;2023-04-25T13:38:02;14.20;99.90
23405;DHT22;11875;49.356;2.718;2023-04-25T13:40:28;14.10;99.90
23405;DHT22;11875;49.356;2.718;2023-04-25T13:42:55;14.20;99.90
23405;DHT22;11875;49.356;2.718;2023-04-25T13:45:20;14.20;99.90
23405;DHT22;11875;49.356;2.718;2023-04-25T13:47:46;14.30;99.90
23405;DHT22;11875;49.356;2.718;2023-04-25T13:50:12;14.40;99.90
23405;DHT22;11875;49.356;2.718;2023-04-25T13:52:39;14.40;99.90
23405;DHT22;11875;49.356;2.718;2023-04-25T13:55:05;14.40;99.90
23405;DHT22;11875;49.356;2.718;2023-04-25T13:57:33;14.60;99.90
23405;DHT22;11875;49.356;2.718;2023-04-25T13:59:58;14.90;99.90
23405;DHT22;11875;49.356;2.718;2023-04-25T14:02:25;14.90;99.90
23405;DHT22;11875;49.356;2.718;2023-04-25T14:04:51;14.80;99.90
23405;DHT22;11875;49.356;2.718;2023-04-25T14:07:16;15.00;99.90
23405;DHT22;11875;49.356;2.718;2023-04-25T14:09:43;15.20;99.90
23405;DHT22;11875;49.356;2.718;2023-04-25T14:12:09;15.30;99.90
23405;DHT22;11875;49.356;2.718;2023-04-25T14:14:36;15.50;99.90
23405;DHT22;11875;49.356;2.718;2023-04-25T14:17:03;15.50;99.90
23405;DHT22;11875;49.356;2.718;2023-04-25T14:19:28;15.50;99.90
23405;DHT22;11875;49.356;2.718;2023-04-25T14:21:55;15.30;99.90
23405;DHT22;11875;49.356;2.718;2023-04-25T14:24:20;15.00;99.90
23405;DHT22;11875;49.356;2.718;2023-04-25T14:26:46;14.80;99.90
23405;DHT22;11875;49.356;2.718;2023-04-25T14:29:12;14.50;99.90
23405;DHT22;11875;49.356;2.718;2023-04-25T14:31:38;14.40;99.90
23405;DHT22;11875;49.356;2.718;2023-04-25T14:34:05;14.40;99.90
23405;DHT22;11875;49.356;2.718;2023-04-25T14:36:32;14.50;99.90
23405;DHT22;11875;49.356;2.718;2023-04-25T14:38:58;14.50;99.90
23405;DHT22;11875;49.356;2.718;2023-04-25T14:41:24;14.50;99.90
23405;DHT22;11875;49.356;2.718;2023-04-25T14:43:51;14.40;99.90
23405;DHT22;11875;49.356;2.718;2023-04-25T14:46:18;14.40;99.90
23405;DHT22;11875;49.356;2.718;2023-04-25T14:48:44;14.40;99.90
23405;DHT22;11875;49.356;2.718;2023-04-25T14:51:10;14.40;99.90
23405;DHT22;11875;49.356;2.718;2023-04-25T14:53:36;14.40;99.90
23405;DHT22;11875;49.356;2.718;2023-04-25T14:56:02;14.40;99.90
23405;DHT22;11875;49.356;2.718;2023-04-25T14:58:27;14.50;99.90
23405;DHT22;11875;49.356;2.718;2023-04-25T15:00:53;14.50;99.90
23405;DHT22;11875;49.356;2.718;2023-04-25T15:03:19;14.50;99.90
23405;DHT22;11875;49.356;2.718;2023-04-25T15:05:44;14.60;99.90
23405;DHT22;11875;49.356;2.718;2023-04-25T15:08:10;14.60;99.90
23405;DHT22;11875;49.356;2.718;2023-04-25T15:10:36;14.50;99.90
23405;DHT22;11875;49.356;2.718;2023-04-25T15:13:02;14.60;99.90
23405;DHT22;11875;49.356;2.718;2023-04-25T15:15:28;14.70;99.90
23405;DHT22;11875;49.356;2.718;2023-04-25T15:17:55;14.70;99.90
23405;DHT22;11875;49.356;2.718;2023-04-25T15:20:21;14.70;99.90
23405;DHT22;11875;49.356;2.718;2023-04-25T15:22:47;14.70;99.90
23405;DHT22;11875;49.356;2.718;2023-04-25T15:25:14;14.80;99.90
23405;DHT22;11875;49.356;2.718;2023-04-25T15:27:41;14.90;99.90
23405;DHT22;11875;49.356;2.718;2023-04-25T15:30:10;14.80;99.90
23405;DHT22;11875;49.356;2.718;2023-04-25T15:32:40;14.80;99.90